sensor_id;sensor_type;location;lat;lon;timestamp;P1;durP1;ratioP1;P2;durP2;ratioP2
17662;SDS011;8950;56.892;15.090;2022-12-07T00:01:06;3.22;;;2.92;;
17662;SDS011;8950;56.892;15.090;2022-12-07T00:03:33;3.30;;;3.00;;
17662;SDS011;8950;56.892;15.090;2022-12-07T00:06:02;2.92;;;2.72;;
17662;SDS011;8950;56.892;15.090;2022-12-07T00:08:29;3.50;;;3.20;;
17662;SDS011;8950;56.892;15.090;2022-12-07T00:11:00;3.47;;;3.20;;
17662;SDS011;8950;56.892;15.090;2022-12-07T00:13:26;3.50;;;3.20;;
17662;SDS011;8950;56.892;15.090;2022-12-07T00:15:52;3.50;;;3.20;;
17662;SDS011;8950;56.892;15.090;2022-12-07T00:18:19;3.35;;;3.03;;
17662;SDS011;8950;56.892;15.090;2022-12-07T00:20:45;3.67;;;3.38;;
17662;SDS011;8950;56.892;15.090;2022-12-07T00:23:13;3.60;;;3.30;;
17662;SDS011;8950;56.892;15.090;2022-12-07T00:25:39;3.53;;;3.22;;
17662;SDS011;8950;56.892;15.090;2022-12-07T00:28:05;3.50;;;3.20;;
17662;SDS011;8950;56.892;15.090;2022-12-07T00:30:34;3.63;;;3.33;;
17662;SDS011;8950;56.892;15.090;2022-12-07T00:33:00;2.95;;;2.75;;
17662;SDS011;8950;56.892;15.090;2022-12-07T00:35:27;3.45;;;3.15;;
17662;SDS011;8950;56.892;15.090;2022-12-07T00:37:53;3.40;;;3.10;;
17662;SDS011;8950;56.892;15.090;2022-12-07T00:40:21;3.40;;;3.20;;
17662;SDS011;8950;56.892;15.090;2022-12-07T00:42:47;3.50;;;3.20;;
17662;SDS011;8950;56.892;15.090;2022-12-07T00:45:13;3.30;;;3.10;;
17662;SDS011;8950;56.892;15.090;2022-12-07T00:47:40;4.30;;;2.85;;
17662;SDS011;8950;56.892;15.090;2022-12-07T00:50:06;3.35;;;3.03;;
17662;SDS011;8950;56.892;15.090;2022-12-07T00:52:33;3.55;;;3.25;;
17662;SDS011;8950;56.892;15.090;2022-12-07T00:54:59;3.00;;;2.80;;
17662;SDS011;8950;56.892;15.090;2022-12-07T00:57:27;3.63;;;3.33;;
17662;SDS011;8950;56.892;15.090;2022-12-07T00:59:54;3.40;;;3.10;;
17662;SDS011;8950;56.892;15.090;2022-12-07T01:02:22;3.45;;;3.13;;
17662;SDS011;8950;56.892;15.090;2022-12-07T01:04:49;3.30;;;3.00;;
17662;SDS011;8950;56.892;15.090;2022-12-07T01:07:15;3.70;;;3.20;;
17662;SDS011;8950;56.892;15.090;2022-12-07T01:09:42;3.80;;;3.40;;
17662;SDS011;8950;56.892;15.090;2022-12-07T01:12:08;2.83;;;2.63;;
17662;SDS011;8950;56.892;15.090;2022-12-07T01:14:36;3.33;;;3.00;;
17662;SDS011;8950;56.892;15.090;2022-12-07T01:17:02;3.67;;;3.38;;
17662;SDS011;8950;56.892;15.090;2022-12-07T01:19:29;3.67;;;3.38;;
17662;SDS011;8950;56.892;15.090;2022-12-07T01:21:55;3.70;;;3.40;;
17662;SDS011;8950;56.892;15.090;2022-12-07T01:24:21;3.50;;;3.17;;
17662;SDS011;8950;56.892;15.090;2022-12-07T01:26:48;3.00;;;2.80;;
17662;SDS011;8950;56.892;15.090;2022-12-07T01:29:15;3.03;;;2.72;;
17662;SDS011;8950;56.892;15.090;2022-12-07T01:31:42;3.22;;;2.92;;
17662;SDS011;8950;56.892;15.090;2022-12-07T01:34:09;3.40;;;3.10;;
17662;SDS011;8950;56.892;15.090;2022-12-07T01:36:35;3.22;;;2.83;;
17662;SDS011;8950;56.892;15.090;2022-12-07T01:39:03;3.30;;;3.00;;
17662;SDS011;8950;56.892;15.090;2022-12-07T01:41:31;3.63;;;3.20;;
17662;SDS011;8950;56.892;15.090;2022-12-07T01:44:08;3.55;;;3.25;;
17662;SDS011;8950;56.892;15.090;2022-12-07T01:46:35;3.30;;;3.00;;
17662;SDS011;8950;56.892;15.090;2022-12-07T01:49:03;3.42;;;3.13;;
17662;SDS011;8950;56.892;15.090;2022-12-07T01:51:30;3.47;;;3.17;;
17662;SDS011;8950;56.892;15.090;2022-12-07T01:53:56;3.25;;;3.03;;
17662;SDS011;8950;56.892;15.090;2022-12-07T01:56:23;2.80;;;2.58;;
17662;SDS011;8950;56.892;15.090;2022-12-07T01:58:51;2.80;;;2.60;;
17662;SDS011;8950;56.892;15.090;2022-12-07T02:01:19;3.40;;;3.10;;
17662;SDS011;8950;56.892;15.090;2022-12-07T02:03:45;3.05;;;2.80;;
17662;SDS011;8950;56.892;15.090;2022-12-07T02:06:14;3.10;;;2.90;;
17662;SDS011;8950;56.892;15.090;2022-12-07T02:08:42;3.03;;;2.80;;
17662;SDS011;8950;56.892;15.090;2022-12-07T02:11:08;2.70;;;2.50;;
17662;SDS011;8950;56.892;15.090;2022-12-07T02:13:35;2.97;;;2.78;;
17662;SDS011;8950;56.892;15.090;2022-12-07T02:16:06;2.63;;;2.42;;
17662;SDS011;8950;56.892;15.090;2022-12-07T02:18:38;3.35;;;2.70;;
17662;SDS011;8950;56.892;15.090;2022-12-07T02:21:07;2.78;;;2.58;;
17662;SDS011;8950;56.892;15.090;2022-12-07T02:23:43;2.78;;;2.58;;
17662;SDS011;8950;56.892;15.090;2022-12-07T02:26:20;2.78;;;2.55;;
17662;SDS011;8950;56.892;15.090;2022-12-07T02:31:32;2.90;;;2.70;;
17662;SDS011;8950;56.892;15.090;2022-12-07T02:34:01;3.10;;;2.33;;
17662;SDS011;8950;56.892;15.090;2022-12-07T02:36:30;2.65;;;2.45;;
17662;SDS011;8950;56.892;15.090;2022-12-07T02:38:59;2.85;;;2.45;;
17662;SDS011;8950;56.892;15.090;2022-12-07T02:41:28;2.65;;;2.45;;
17662;SDS011;8950;56.892;15.090;2022-12-07T02:43:55;2.75;;;2.55;;
17662;SDS011;8950;56.892;15.090;2022-12-07T02:46:25;2.10;;;2.00;;
17662;SDS011;8950;56.892;15.090;2022-12-07T02:48:53;2.47;;;2.28;;
17662;SDS011;8950;56.892;15.090;2022-12-07T02:51:20;2.78;;;2.58;;
17662;SDS011;8950;56.892;15.090;2022-12-07T02:53:47;2.80;;;2.50;;
17662;SDS011;8950;56.892;15.090;2022-12-07T02:56:21;2.60;;;2.40;;
17662;SDS011;8950;56.892;15.090;2022-12-07T02:58:53;2.72;;;2.47;;
17662;SDS011;8950;56.892;15.090;2022-12-07T03:01:25;3.13;;;2.70;;
17662;SDS011;8950;56.892;15.090;2022-12-07T03:03:57;3.15;;;2.80;;
17662;SDS011;8950;56.892;15.090;2022-12-07T03:06:26;3.10;;;2.80;;
17662;SDS011;8950;56.892;15.090;2022-12-07T03:08:56;2.83;;;2.53;;
17662;SDS011;8950;56.892;15.090;2022-12-07T03:11:25;2.45;;;2.30;;
17662;SDS011;8950;56.892;15.090;2022-12-07T03:13:54;2.63;;;2.42;;
17662;SDS011;8950;56.892;15.090;2022-12-07T03:16:24;2.88;;;2.67;;
17662;SDS011;8950;56.892;15.090;2022-12-07T03:18:53;2.63;;;2.38;;
17662;SDS011;8950;56.892;15.090;2022-12-07T03:21:24;2.50;;;2.30;;
17662;SDS011;8950;56.892;15.090;2022-12-07T03:23:52;2.88;;;2.60;;
17662;SDS011;8950;56.892;15.090;2022-12-07T03:26:20;2.67;;;2.42;;
17662;SDS011;8950;56.892;15.090;2022-12-07T03:28:48;2.47;;;2.28;;
17662;SDS011;8950;56.892;15.090;2022-12-07T03:31:17;2.80;;;2.60;;
17662;SDS011;8950;56.892;15.090;2022-12-07T03:33:47;2.75;;;2.55;;
17662;SDS011;8950;56.892;15.090;2022-12-07T03:36:15;2.42;;;2.22;;
17662;SDS011;8950;56.892;15.090;2022-12-07T03:38:45;2.53;;;2.33;;
17662;SDS011;8950;56.892;15.090;2022-12-07T03:41:14;2.42;;;2.22;;
17662;SDS011;8950;56.892;15.090;2022-12-07T03:43:43;2.53;;;2.33;;
17662;SDS011;8950;56.892;15.090;2022-12-07T03:46:13;2.22;;;2.03;;
17662;SDS011;8950;56.892;15.090;2022-12-07T03:48:44;2.78;;;2.58;;
17662;SDS011;8950;56.892;15.090;2022-12-07T03:51:13;2.50;;;2.30;;
17662;SDS011;8950;56.892;15.090;2022-12-07T03:53:42;2.75;;;2.47;;
17662;SDS011;8950;56.892;15.090;2022-12-07T03:56:12;2.85;;;2.35;;
17662;SDS011;8950;56.892;15.090;2022-12-07T03:58:39;2.70;;;2.50;;
17662;SDS011;8950;56.892;15.090;2022-12-07T04:01:06;2.28;;;2.08;;
17662;SDS011;8950;56.892;15.090;2022-12-07T04:03:32;2.65;;;2.45;;
17662;SDS011;8950;56.892;15.090;2022-12-07T04:05:59;2.40;;;2.20;;
17662;SDS011;8950;56.892;15.090;2022-12-07T04:08:25;2.47;;;2.20;;
17662;SDS011;8950;56.892;15.090;2022-12-07T04:10:52;2.20;;;2.00;;
17662;SDS011;8950;56.892;15.090;2022-12-07T04:13:19;2.40;;;2.20;;
17662;SDS011;8950;56.892;15.090;2022-12-07T04:15:46;2.13;;;1.98;;
17662;SDS011;8950;56.892;15.090;2022-12-07T04:18:12;2.33;;;2.08;;
17662;SDS011;8950;56.892;15.090;2022-12-07T04:20:38;2.20;;;2.00;;
17662;SDS011;8950;56.892;15.090;2022-12-07T04:23:05;2.13;;;2.03;;
17662;SDS011;8950;56.892;15.090;2022-12-07T04:25:31;2.05;;;1.92;;
17662;SDS011;8950;56.892;15.090;2022-12-07T04:27:57;2.08;;;1.88;;
17662;SDS011;8950;56.892;15.090;2022-12-07T04:30:26;2.28;;;2.00;;
17662;SDS011;8950;56.892;15.090;2022-12-07T04:32:52;1.92;;;1.83;;
17662;SDS011;8950;56.892;15.090;2022-12-07T04:35:18;2.35;;;1.88;;
17662;SDS011;8950;56.892;15.090;2022-12-07T04:37:45;2.15;;;1.95;;
17662;SDS011;8950;56.892;15.090;2022-12-07T04:40:11;1.90;;;1.80;;
17662;SDS011;8950;56.892;15.090;2022-12-07T04:42:39;2.22;;;2.03;;
17662;SDS011;8950;56.892;15.090;2022-12-07T04:45:06;1.85;;;1.75;;
17662;SDS011;8950;56.892;15.090;2022-12-07T04:47:34;2.35;;;1.85;;
17662;SDS011;8950;56.892;15.090;2022-12-07T04:50:00;2.13;;;1.70;;
17662;SDS011;8950;56.892;15.090;2022-12-07T04:52:27;2.10;;;1.90;;
17662;SDS011;8950;56.892;15.090;2022-12-07T04:54:53;2.08;;;1.88;;
17662;SDS011;8950;56.892;15.090;2022-12-07T04:57:19;2.20;;;2.00;;
17662;SDS011;8950;56.892;15.090;2022-12-07T04:59:46;2.55;;;1.95;;
17662;SDS011;8950;56.892;15.090;2022-12-07T05:02:12;2.22;;;2.00;;
17662;SDS011;8950;56.892;15.090;2022-12-07T05:04:40;1.92;;;1.70;;
17662;SDS011;8950;56.892;15.090;2022-12-07T05:07:06;2.22;;;1.80;;
17662;SDS011;8950;56.892;15.090;2022-12-07T05:09:33;2.00;;;1.80;;
17662;SDS011;8950;56.892;15.090;2022-12-07T05:11:59;3.22;;;1.85;;
17662;SDS011;8950;56.892;15.090;2022-12-07T05:14:25;2.35;;;1.90;;
17662;SDS011;8950;56.892;15.090;2022-12-07T05:16:52;3.05;;;1.90;;
17662;SDS011;8950;56.892;15.090;2022-12-07T05:19:18;2.33;;;1.83;;
17662;SDS011;8950;56.892;15.090;2022-12-07T05:21:47;2.05;;;1.83;;
17662;SDS011;8950;56.892;15.090;2022-12-07T05:24:14;1.98;;;1.83;;
17662;SDS011;8950;56.892;15.090;2022-12-07T05:26:40;2.65;;;1.85;;
17662;SDS011;8950;56.892;15.090;2022-12-07T05:29:07;2.17;;;1.60;;
17662;SDS011;8950;56.892;15.090;2022-12-07T05:31:33;2.00;;;1.80;;
17662;SDS011;8950;56.892;15.090;2022-12-07T05:34:00;1.85;;;1.60;;
17662;SDS011;8950;56.892;15.090;2022-12-07T05:36:26;3.10;;;1.80;;
17662;SDS011;8950;56.892;15.090;2022-12-07T05:38:57;2.63;;;1.80;;
17662;SDS011;8950;56.892;15.090;2022-12-07T05:41:24;2.85;;;1.70;;
17662;SDS011;8950;56.892;15.090;2022-12-07T05:44:08;2.60;;;1.63;;
17662;SDS011;8950;56.892;15.090;2022-12-07T05:46:34;1.65;;;1.50;;
17662;SDS011;8950;56.892;15.090;2022-12-07T05:49:01;1.70;;;1.60;;
17662;SDS011;8950;56.892;15.090;2022-12-07T05:51:27;1.65;;;1.50;;
17662;SDS011;8950;56.892;15.090;2022-12-07T05:53:54;1.60;;;1.50;;
17662;SDS011;8950;56.892;15.090;2022-12-07T05:56:21;2.92;;;1.70;;
17662;SDS011;8950;56.892;15.090;2022-12-07T05:58:48;2.28;;;1.80;;
17662;SDS011;8950;56.892;15.090;2022-12-07T06:01:32;2.72;;;1.67;;
17662;SDS011;8950;56.892;15.090;2022-12-07T06:03:59;2.13;;;1.77;;
17662;SDS011;8950;56.892;15.090;2022-12-07T06:06:25;1.92;;;1.60;;
17662;SDS011;8950;56.892;15.090;2022-12-07T06:08:51;2.13;;;1.63;;
17662;SDS011;8950;56.892;15.090;2022-12-07T06:11:18;1.60;;;1.50;;
17662;SDS011;8950;56.892;15.090;2022-12-07T06:14:03;1.98;;;1.70;;
17662;SDS011;8950;56.892;15.090;2022-12-07T06:16:29;4.22;;;1.80;;
17662;SDS011;8950;56.892;15.090;2022-12-07T06:18:55;2.25;;;1.50;;
17662;SDS011;8950;56.892;15.090;2022-12-07T06:21:22;2.00;;;1.80;;
17662;SDS011;8950;56.892;15.090;2022-12-07T06:23:50;1.92;;;1.65;;
17662;SDS011;8950;56.892;15.090;2022-12-07T06:26:17;2.22;;;1.67;;
17662;SDS011;8950;56.892;15.090;2022-12-07T06:28:43;2.20;;;1.58;;
17662;SDS011;8950;56.892;15.090;2022-12-07T06:31:11;1.88;;;1.60;;
17662;SDS011;8950;56.892;15.090;2022-12-07T06:33:37;2.58;;;1.77;;
17662;SDS011;8950;56.892;15.090;2022-12-07T06:36:04;2.33;;;1.70;;
17662;SDS011;8950;56.892;15.090;2022-12-07T06:38:30;11.90;;;10.70;;
17662;SDS011;8950;56.892;15.090;2022-12-07T06:40:56;3.17;;;2.38;;
17662;SDS011;8950;56.892;15.090;2022-12-07T06:43:23;2.45;;;2.25;;
17662;SDS011;8950;56.892;15.090;2022-12-07T06:45:49;2.13;;;1.80;;
17662;SDS011;8950;56.892;15.090;2022-12-07T06:48:17;2.08;;;1.60;;
17662;SDS011;8950;56.892;15.090;2022-12-07T06:50:44;2.83;;;2.00;;
17662;SDS011;8950;56.892;15.090;2022-12-07T06:53:10;2.15;;;1.80;;
17662;SDS011;8950;56.892;15.090;2022-12-07T06:55:36;1.70;;;1.60;;
17662;SDS011;8950;56.892;15.090;2022-12-07T06:58:03;2.60;;;1.70;;
17662;SDS011;8950;56.892;15.090;2022-12-07T07:00:29;1.88;;;1.65;;
17662;SDS011;8950;56.892;15.090;2022-12-07T07:02:56;1.60;;;1.50;;
17662;SDS011;8950;56.892;15.090;2022-12-07T07:05:24;1.80;;;1.60;;
17662;SDS011;8950;56.892;15.090;2022-12-07T07:07:50;2.10;;;1.80;;
17662;SDS011;8950;56.892;15.090;2022-12-07T07:10:16;1.98;;;1.60;;
17662;SDS011;8950;56.892;15.090;2022-12-07T07:12:43;2.72;;;1.58;;
17662;SDS011;8950;56.892;15.090;2022-12-07T07:15:09;1.70;;;1.60;;
17662;SDS011;8950;56.892;15.090;2022-12-07T07:17:36;4.72;;;4.32;;
17662;SDS011;8950;56.892;15.090;2022-12-07T07:20:03;2.65;;;1.85;;
17662;SDS011;8950;56.892;15.090;2022-12-07T07:22:31;2.10;;;1.70;;
17662;SDS011;8950;56.892;15.090;2022-12-07T07:24:57;1.70;;;1.60;;
17662;SDS011;8950;56.892;15.090;2022-12-07T07:27:24;1.55;;;1.45;;
17662;SDS011;8950;56.892;15.090;2022-12-07T07:29:50;2.05;;;1.50;;
17662;SDS011;8950;56.892;15.090;2022-12-07T07:32:16;3.40;;;1.90;;
17662;SDS011;8950;56.892;15.090;2022-12-07T07:34:43;1.80;;;1.52;;
17662;SDS011;8950;56.892;15.090;2022-12-07T07:37:09;2.03;;;1.50;;
17662;SDS011;8950;56.892;15.090;2022-12-07T07:39:39;2.35;;;1.50;;
17662;SDS011;8950;56.892;15.090;2022-12-07T07:42:05;2.05;;;1.70;;
17662;SDS011;8950;56.892;15.090;2022-12-07T07:44:32;2.47;;;1.70;;
17662;SDS011;8950;56.892;15.090;2022-12-07T07:46:58;2.17;;;1.80;;
17662;SDS011;8950;56.892;15.090;2022-12-07T07:49:25;3.20;;;2.20;;
17662;SDS011;8950;56.892;15.090;2022-12-07T07:51:51;2.58;;;2.35;;
17662;SDS011;8950;56.892;15.090;2022-12-07T07:54:18;1.85;;;1.52;;
17662;SDS011;8950;56.892;15.090;2022-12-07T07:56:46;1.60;;;1.50;;
17662;SDS011;8950;56.892;15.090;2022-12-07T07:59:12;1.80;;;1.63;;
17662;SDS011;8950;56.892;15.090;2022-12-07T08:01:38;1.48;;;1.27;;
17662;SDS011;8950;56.892;15.090;2022-12-07T08:04:05;1.60;;;1.50;;
17662;SDS011;8950;56.892;15.090;2022-12-07T08:06:31;2.20;;;1.60;;
17662;SDS011;8950;56.892;15.090;2022-12-07T08:08:57;1.60;;;1.50;;
17662;SDS011;8950;56.892;15.090;2022-12-07T08:11:24;2.58;;;1.63;;
17662;SDS011;8950;56.892;15.090;2022-12-07T08:13:51;2.88;;;1.60;;
17662;SDS011;8950;56.892;15.090;2022-12-07T08:16:18;1.98;;;1.48;;
17662;SDS011;8950;56.892;15.090;2022-12-07T08:18:44;3.53;;;1.70;;
17662;SDS011;8950;56.892;15.090;2022-12-07T08:21:11;2.10;;;1.60;;
17662;SDS011;8950;56.892;15.090;2022-12-07T08:23:38;2.92;;;1.70;;
17662;SDS011;8950;56.892;15.090;2022-12-07T08:26:05;2.00;;;1.50;;
17662;SDS011;8950;56.892;15.090;2022-12-07T08:28:32;2.22;;;1.63;;
17662;SDS011;8950;56.892;15.090;2022-12-07T08:31:00;1.90;;;1.70;;
17662;SDS011;8950;56.892;15.090;2022-12-07T08:33:26;3.40;;;1.80;;
17662;SDS011;8950;56.892;15.090;2022-12-07T08:35:53;2.13;;;1.55;;
17662;SDS011;8950;56.892;15.090;2022-12-07T08:38:19;1.83;;;1.50;;
17662;SDS011;8950;56.892;15.090;2022-12-07T08:40:52;2.13;;;1.50;;
17662;SDS011;8950;56.892;15.090;2022-12-07T08:43:19;3.58;;;1.70;;
17662;SDS011;8950;56.892;15.090;2022-12-07T08:45:45;1.75;;;1.40;;
17662;SDS011;8950;56.892;15.090;2022-12-07T08:48:14;2.10;;;1.40;;
17662;SDS011;8950;56.892;15.090;2022-12-07T08:50:42;2.03;;;1.45;;
17662;SDS011;8950;56.892;15.090;2022-12-07T08:53:09;3.08;;;1.70;;
17662;SDS011;8950;56.892;15.090;2022-12-07T08:55:35;2.65;;;1.58;;
17662;SDS011;8950;56.892;15.090;2022-12-07T08:58:02;2.33;;;1.55;;
17662;SDS011;8950;56.892;15.090;2022-12-07T09:00:29;2.00;;;1.58;;
17662;SDS011;8950;56.892;15.090;2022-12-07T09:02:55;1.55;;;1.38;;
17662;SDS011;8950;56.892;15.090;2022-12-07T09:05:23;2.50;;;1.60;;
17662;SDS011;8950;56.892;15.090;2022-12-07T09:07:50;1.70;;;1.60;;
17662;SDS011;8950;56.892;15.090;2022-12-07T09:10:17;1.90;;;1.40;;
17662;SDS011;8950;56.892;15.090;2022-12-07T09:12:44;2.17;;;1.45;;
17662;SDS011;8950;56.892;15.090;2022-12-07T09:15:10;1.67;;;1.58;;
17662;SDS011;8950;56.892;15.090;2022-12-07T09:17:37;1.98;;;1.48;;
17662;SDS011;8950;56.892;15.090;2022-12-07T09:20:03;2.85;;;1.70;;
17662;SDS011;8950;56.892;15.090;2022-12-07T09:22:32;3.35;;;1.85;;
17662;SDS011;8950;56.892;15.090;2022-12-07T09:24:58;1.80;;;1.50;;
17662;SDS011;8950;56.892;15.090;2022-12-07T09:27:25;1.65;;;1.50;;
17662;SDS011;8950;56.892;15.090;2022-12-07T09:29:52;1.80;;;1.60;;
17662;SDS011;8950;56.892;15.090;2022-12-07T09:32:18;1.60;;;1.50;;
17662;SDS011;8950;56.892;15.090;2022-12-07T09:34:45;2.53;;;1.88;;
17662;SDS011;8950;56.892;15.090;2022-12-07T09:37:11;3.30;;;1.92;;
17662;SDS011;8950;56.892;15.090;2022-12-07T09:39:39;2.35;;;1.73;;
17662;SDS011;8950;56.892;15.090;2022-12-07T09:42:06;2.40;;;1.90;;
17662;SDS011;8950;56.892;15.090;2022-12-07T09:44:33;3.00;;;1.80;;
17662;SDS011;8950;56.892;15.090;2022-12-07T09:47:00;2.40;;;1.83;;
17662;SDS011;8950;56.892;15.090;2022-12-07T09:49:27;2.65;;;1.67;;
17662;SDS011;8950;56.892;15.090;2022-12-07T09:52:17;2.10;;;1.80;;
17662;SDS011;8950;56.892;15.090;2022-12-07T09:54:45;1.92;;;1.80;;
17662;SDS011;8950;56.892;15.090;2022-12-07T09:57:13;1.90;;;1.60;;
17662;SDS011;8950;56.892;15.090;2022-12-07T09:59:39;3.10;;;1.80;;
17662;SDS011;8950;56.892;15.090;2022-12-07T10:02:19;3.53;;;3.22;;
17662;SDS011;8950;56.892;15.090;2022-12-07T10:04:49;2.15;;;1.63;;
17662;SDS011;8950;56.892;15.090;2022-12-07T10:07:16;3.20;;;2.38;;
17662;SDS011;8950;56.892;15.090;2022-12-07T10:09:43;2.00;;;1.60;;
17662;SDS011;8950;56.892;15.090;2022-12-07T10:12:10;9.35;;;8.45;;
17662;SDS011;8950;56.892;15.090;2022-12-07T10:14:37;11.88;;;10.63;;
17662;SDS011;8950;56.892;15.090;2022-12-07T10:17:17;3.05;;;2.40;;
17662;SDS011;8950;56.892;15.090;2022-12-07T10:19:54;11.20;;;10.20;;
17662;SDS011;8950;56.892;15.090;2022-12-07T10:22:35;16.95;;;15.27;;
17662;SDS011;8950;56.892;15.090;2022-12-07T10:25:07;15.05;;;13.57;;
17662;SDS011;8950;56.892;15.090;2022-12-07T10:27:34;6.50;;;5.28;;
17662;SDS011;8950;56.892;15.090;2022-12-07T10:30:01;9.43;;;8.55;;
17662;SDS011;8950;56.892;15.090;2022-12-07T10:32:34;2.95;;;1.70;;
17662;SDS011;8950;56.892;15.090;2022-12-07T10:37:47;1.90;;;1.70;;
17662;SDS011;8950;56.892;15.090;2022-12-07T10:40:24;1.83;;;1.60;;
17662;SDS011;8950;56.892;15.090;2022-12-07T10:43:00;2.58;;;1.60;;
17662;SDS011;8950;56.892;15.090;2022-12-07T10:45:26;3.20;;;2.08;;
17662;SDS011;8950;56.892;15.090;2022-12-07T10:47:55;2.00;;;1.40;;
17662;SDS011;8950;56.892;15.090;2022-12-07T10:50:37;1.80;;;1.48;;
17662;SDS011;8950;56.892;15.090;2022-12-07T10:53:19;2.17;;;1.50;;
17662;SDS011;8950;56.892;15.090;2022-12-07T10:55:52;2.00;;;1.45;;
17662;SDS011;8950;56.892;15.090;2022-12-07T10:58:31;2.38;;;1.75;;
17662;SDS011;8950;56.892;15.090;2022-12-07T11:01:03;2.58;;;1.80;;
17662;SDS011;8950;56.892;15.090;2022-12-07T11:03:37;2.65;;;1.60;;
17662;SDS011;8950;56.892;15.090;2022-12-07T11:06:09;2.25;;;1.48;;
17662;SDS011;8950;56.892;15.090;2022-12-07T11:08:43;2.22;;;1.45;;
17662;SDS011;8950;56.892;15.090;2022-12-07T11:11:13;2.00;;;1.48;;
17662;SDS011;8950;56.892;15.090;2022-12-07T11:13:42;2.35;;;1.50;;
17662;SDS011;8950;56.892;15.090;2022-12-07T11:16:19;1.48;;;1.35;;
17662;SDS011;8950;56.892;15.090;2022-12-07T11:19:18;2.78;;;1.60;;
17662;SDS011;8950;56.892;15.090;2022-12-07T11:21:50;1.83;;;1.50;;
17662;SDS011;8950;56.892;15.090;2022-12-07T11:24:20;2.00;;;1.50;;
17662;SDS011;8950;56.892;15.090;2022-12-07T11:26:55;2.20;;;1.70;;
17662;SDS011;8950;56.892;15.090;2022-12-07T11:29:28;2.15;;;1.63;;
17662;SDS011;8950;56.892;15.090;2022-12-07T11:31:58;1.73;;;1.40;;
17662;SDS011;8950;56.892;15.090;2022-12-07T11:34:31;2.17;;;1.60;;
17662;SDS011;8950;56.892;15.090;2022-12-07T11:37:02;1.40;;;1.30;;
17662;SDS011;8950;56.892;15.090;2022-12-07T11:39:33;2.25;;;1.70;;
17662;SDS011;8950;56.892;15.090;2022-12-07T11:42:00;1.55;;;1.45;;
17662;SDS011;8950;56.892;15.090;2022-12-07T11:44:30;2.17;;;1.40;;
17662;SDS011;8950;56.892;15.090;2022-12-07T11:46:58;1.98;;;1.40;;
17662;SDS011;8950;56.892;15.090;2022-12-07T11:49:27;1.73;;;1.50;;
17662;SDS011;8950;56.892;15.090;2022-12-07T11:52:01;2.72;;;1.70;;
17662;SDS011;8950;56.892;15.090;2022-12-07T11:54:29;2.05;;;1.42;;
17662;SDS011;8950;56.892;15.090;2022-12-07T11:57:01;3.83;;;1.48;;
17662;SDS011;8950;56.892;15.090;2022-12-07T11:59:30;1.85;;;1.48;;
17662;SDS011;8950;56.892;15.090;2022-12-07T12:01:58;2.40;;;1.52;;
17662;SDS011;8950;56.892;15.090;2022-12-07T12:04:31;2.38;;;1.60;;
17662;SDS011;8950;56.892;15.090;2022-12-07T12:07:00;3.22;;;1.67;;
17662;SDS011;8950;56.892;15.090;2022-12-07T12:09:27;2.80;;;1.60;;
17662;SDS011;8950;56.892;15.090;2022-12-07T12:12:10;1.60;;;1.40;;
17662;SDS011;8950;56.892;15.090;2022-12-07T12:14:43;1.70;;;1.42;;
17662;SDS011;8950;56.892;15.090;2022-12-07T12:17:24;2.28;;;1.70;;
17662;SDS011;8950;56.892;15.090;2022-12-07T12:19:58;1.65;;;1.52;;
17662;SDS011;8950;56.892;15.090;2022-12-07T12:22:26;2.13;;;1.58;;
17662;SDS011;8950;56.892;15.090;2022-12-07T12:24:53;1.85;;;1.40;;
17662;SDS011;8950;56.892;15.090;2022-12-07T12:27:23;2.38;;;1.70;;
17662;SDS011;8950;56.892;15.090;2022-12-07T12:29:51;2.78;;;1.77;;
17662;SDS011;8950;56.892;15.090;2022-12-07T12:32:19;1.95;;;1.50;;
17662;SDS011;8950;56.892;15.090;2022-12-07T12:35:17;1.60;;;1.50;;
17662;SDS011;8950;56.892;15.090;2022-12-07T12:37:46;2.35;;;1.65;;
17662;SDS011;8950;56.892;15.090;2022-12-07T12:42:59;1.75;;;1.58;;
17662;SDS011;8950;56.892;15.090;2022-12-07T12:45:26;2.13;;;1.60;;
17662;SDS011;8950;56.892;15.090;2022-12-07T12:47:53;1.65;;;1.55;;
17662;SDS011;8950;56.892;15.090;2022-12-07T12:50:21;2.05;;;1.80;;
17662;SDS011;8950;56.892;15.090;2022-12-07T13:03:51;1.92;;;1.40;;
17662;SDS011;8950;56.892;15.090;2022-12-07T13:06:19;1.90;;;1.50;;
17662;SDS011;8950;56.892;15.090;2022-12-07T13:08:46;2.08;;;1.63;;
17662;SDS011;8950;56.892;15.090;2022-12-07T13:11:17;1.67;;;1.55;;
17662;SDS011;8950;56.892;15.090;2022-12-07T13:13:44;3.42;;;1.75;;
17662;SDS011;8950;56.892;15.090;2022-12-07T13:18:58;2.50;;;1.63;;
17662;SDS011;8950;56.892;15.090;2022-12-07T13:21:43;1.75;;;1.33;;
17662;SDS011;8950;56.892;15.090;2022-12-07T13:24:10;2.65;;;1.65;;
17662;SDS011;8950;56.892;15.090;2022-12-07T13:26:38;2.38;;;1.55;;
17662;SDS011;8950;56.892;15.090;2022-12-07T13:29:07;1.40;;;1.30;;
17662;SDS011;8950;56.892;15.090;2022-12-07T13:31:34;2.08;;;1.30;;
17662;SDS011;8950;56.892;15.090;2022-12-07T13:34:02;2.10;;;1.65;;
17662;SDS011;8950;56.892;15.090;2022-12-07T13:36:29;1.60;;;1.40;;
17662;SDS011;8950;56.892;15.090;2022-12-07T13:39:09;1.42;;;1.25;;
17662;SDS011;8950;56.892;15.090;2022-12-07T13:41:36;1.70;;;1.40;;
17662;SDS011;8950;56.892;15.090;2022-12-07T13:44:08;2.00;;;1.42;;
17662;SDS011;8950;56.892;15.090;2022-12-07T13:46:40;1.60;;;1.50;;
17662;SDS011;8950;56.892;15.090;2022-12-07T13:49:17;2.03;;;1.60;;
17662;SDS011;8950;56.892;15.090;2022-12-07T13:51:44;3.35;;;1.98;;
17662;SDS011;8950;56.892;15.090;2022-12-07T13:54:12;2.78;;;1.95;;
17662;SDS011;8950;56.892;15.090;2022-12-07T13:56:38;2.65;;;1.88;;
17662;SDS011;8950;56.892;15.090;2022-12-07T13:59:05;2.20;;;1.50;;
17662;SDS011;8950;56.892;15.090;2022-12-07T14:01:38;1.85;;;1.60;;
17662;SDS011;8950;56.892;15.090;2022-12-07T14:06:50;1.73;;;1.42;;
17662;SDS011;8950;56.892;15.090;2022-12-07T14:09:18;2.13;;;1.65;;
17662;SDS011;8950;56.892;15.090;2022-12-07T14:11:45;1.65;;;1.55;;
17662;SDS011;8950;56.892;15.090;2022-12-07T14:14:13;2.17;;;1.65;;
17662;SDS011;8950;56.892;15.090;2022-12-07T14:16:41;2.08;;;1.70;;
17662;SDS011;8950;56.892;15.090;2022-12-07T14:19:38;3.17;;;1.70;;
17662;SDS011;8950;56.892;15.090;2022-12-07T14:22:17;2.13;;;1.52;;
17662;SDS011;8950;56.892;15.090;2022-12-07T14:24:44;2.00;;;1.50;;
17662;SDS011;8950;56.892;15.090;2022-12-07T14:27:16;1.98;;;1.55;;
17662;SDS011;8950;56.892;15.090;2022-12-07T14:29:43;2.80;;;1.85;;
17662;SDS011;8950;56.892;15.090;2022-12-07T14:32:19;1.77;;;1.33;;
17662;SDS011;8950;56.892;15.090;2022-12-07T14:34:57;3.33;;;1.60;;
17662;SDS011;8950;56.892;15.090;2022-12-07T14:37:25;2.10;;;1.40;;
17662;SDS011;8950;56.892;15.090;2022-12-07T14:39:52;1.38;;;1.27;;
17662;SDS011;8950;56.892;15.090;2022-12-07T14:42:18;1.83;;;1.50;;
17662;SDS011;8950;56.892;15.090;2022-12-07T14:44:45;3.08;;;1.50;;
17662;SDS011;8950;56.892;15.090;2022-12-07T14:47:12;1.33;;;1.23;;
17662;SDS011;8950;56.892;15.090;2022-12-07T14:49:38;1.70;;;1.60;;
17662;SDS011;8950;56.892;15.090;2022-12-07T14:52:05;2.30;;;1.50;;
17662;SDS011;8950;56.892;15.090;2022-12-07T14:54:33;1.80;;;1.40;;
17662;SDS011;8950;56.892;15.090;2022-12-07T14:57:00;2.78;;;1.70;;
17662;SDS011;8950;56.892;15.090;2022-12-07T14:59:26;2.15;;;1.73;;
17662;SDS011;8950;56.892;15.090;2022-12-07T15:01:52;2.67;;;2.30;;
17662;SDS011;8950;56.892;15.090;2022-12-07T15:04:19;4.03;;;2.47;;
17662;SDS011;8950;56.892;15.090;2022-12-07T15:06:54;7.80;;;5.00;;
17662;SDS011;8950;56.892;15.090;2022-12-07T15:09:20;5.10;;;4.03;;
17662;SDS011;8950;56.892;15.090;2022-12-07T15:11:48;1.98;;;1.70;;
17662;SDS011;8950;56.892;15.090;2022-12-07T15:14:14;1.60;;;1.50;;
17662;SDS011;8950;56.892;15.090;2022-12-07T15:16:41;1.63;;;1.52;;
17662;SDS011;8950;56.892;15.090;2022-12-07T15:19:10;2.05;;;1.70;;
17662;SDS011;8950;56.892;15.090;2022-12-07T15:21:38;2.20;;;1.55;;